Time;durP1;ratioP1;P1;durP2;ratioP2;P2;SDS_P1;SDS_P2;PMS_P1;PMS_P2;Temp;Humidity;BMP_temperature;BMP_pressure;BME280_temperature;BME280_humidity;BME280_pressure;Samples;Min_cycle;Max_cycle;Signal;HPM_P1;HPM_P2
2022/09/09 00:00:16;;;;;;;10.50;9.45;;;;;;;;;;5076589;28;20074;-63
2022/09/09 00:03:02;;;;;;;9.93;8.68;;;;;;;;;;5058679;28;20024;-63
2022/09/09 00:05:31;;;;;;;11.88;10.77;;;;;;;;;;5065454;28;20476;-63
2022/09/09 00:07:59;;;;;;;11.25;10.05;;;;;;;;;;5076441;28;20170;-63
2022/09/09 00:10:27;;;;;;;11.25;10.20;;;;;;;;;;5076374;28;20051;-63
2022/09/09 00:13:11;;;;;;;12.75;11.65;;;;;;;;;;5076384;28;20165;-63
2022/09/09 00:15:42;;;;;;;10.95;9.85;;;;;;;;;;5076570;28;20382;-63
2022/09/09 00:18:26;;;;;;;11.63;10.35;;;;;;;;;;5076557;28;20029;-63
2022/09/09 00:20:55;;;;;;;11.48;10.38;;;;;;;;;;5076244;28;20064;-63
2022/09/09 00:23:36;;;;;;;10.00;9.07;;;;;;;;;;5076739;28;20028;-63
2022/09/09 00:26:01;;;;;;;9.60;8.70;;;;;;;;;;5076355;28;20033;-63
2022/09/09 00:28:30;;;;;;;9.13;8.23;;;;;;;;;;5076087;28;20396;-63
2022/09/09 00:30:57;;;;;;;10.02;9.18;;;;;;;;;;5058073;28;20263;-63
2022/09/09 00:33:23;;;;;;;9.23;8.13;;;;;;;;;;5076242;28;20021;-63
2022/09/09 00:35:50;;;;;;;10.00;9.10;;;;;;;;;;5058265;28;20499;-63
2022/09/09 00:38:25;;;;;;;8.18;7.57;;;;;;;;;;5057790;28;20496;-63
2022/09/09 00:40:57;;;;;;;9.23;8.48;;;;;;;;;;5076420;28;20108;-63
2022/09/09 00:43:27;;;;;;;8.77;7.97;;;;;;;;;;5074566;28;20032;-63
2022/09/09 00:46:07;;;;;;;8.15;7.55;;;;;;;;;;5057722;28;20036;-63
2022/09/09 00:48:42;;;;;;;8.52;7.72;;;;;;;;;;5075231;22;20476;-63
2022/09/09 00:51:15;;;;;;;8.95;8.10;;;;;;;;;;5055576;28;20488;-63
2022/09/09 00:53:55;;;;;;;9.07;8.18;;;;;;;;;;5055856;28;20376;-63
2022/09/09 00:56:23;;;;;;;7.53;6.57;;;;;;;;;;5054354;28;20053;-63
2022/09/09 00:59:06;;;;;;;8.70;7.72;;;;;;;;;;5055538;28;20401;-63
2022/09/09 01:01:32;;;;;;;8.63;7.93;;;;;;;;;;5055709;28;20025;-63
2022/09/09 01:03:59;;;;;;;8.45;7.57;;;;;;;;;;5054116;28;20440;-63
2022/09/09 01:06:26;;;;;;;7.63;6.93;;;;;;;;;;5066254;22;20064;-63
2022/09/09 01:09:10;;;;;;;8.50;7.70;;;;;;;;;;5054042;28;20036;-63
2022/09/09 01:11:53;;;;;;;8.38;7.22;;;;;;;;;;5055552;28;20052;-63
2022/09/09 01:14:34;;;;;;;8.13;7.43;;;;;;;;;;5037641;28;20079;-63
2022/09/09 01:17:19;;;;;;;8.10;7.40;;;;;;;;;;5053858;28;20488;-63
2022/09/09 01:20:12;;;;;;;8.32;7.50;;;;;;;;;;5037528;28;20040;-63
2022/09/09 01:22:52;;;;;;;8.38;7.65;;;;;;;;;;5037203;28;20515;-63
2022/09/09 01:25:20;;;;;;;9.40;8.45;;;;;;;;;;5053611;28;20041;-63
2022/09/09 01:27:57;;;;;;;9.40;8.45;;;;;;;;;;5054943;28;20024;-63
2022/09/09 01:30:23;;;;;;;9.07;8.25;;;;;;;;;;5054877;28;20520;-63
2022/09/09 01:32:51;;;;;;;10.18;8.93;;;;;;;;;;5020941;28;20036;-63
2022/09/09 01:35:27;;;;;;;9.88;8.93;;;;;;;;;;5054806;28;20029;-63
2022/09/09 01:37:52;;;;;;;9.57;8.77;;;;;;;;;;5036866;28;20025;-63
2022/09/09 01:40:18;;;;;;;10.60;9.60;;;;;;;;;;5053451;28;20064;-63
2022/09/09 01:42:43;;;;;;;10.27;9.27;;;;;;;;;;5037051;28;20513;-63
2022/09/09 01:45:09;;;;;;;9.77;8.85;;;;;;;;;;5054811;28;20017;-63
2022/09/09 01:47:35;;;;;;;10.50;9.45;;;;;;;;;;5054578;28;20052;-63
2022/09/09 01:50:11;;;;;;;10.80;8.88;;;;;;;;;;5036955;28;20052;-63
2022/09/09 01:52:37;;;;;;;10.43;9.43;;;;;;;;;;5036628;28;20025;-63
2022/09/09 01:55:05;;;;;;;10.95;9.88;;;;;;;;;;5036806;28;20017;-63
2022/09/09 01:58:01;;;;;;;10.38;9.38;;;;;;;;;;5037049;28;20040;-63
2022/09/09 02:00:26;;;;;;;9.82;8.80;;;;;;;;;;5036476;28;20445;-63
2022/09/09 02:03:00;;;;;;;10.57;9.57;;;;;;;;;;5035962;28;20013;-63
2022/09/09 02:05:53;;;;;;;9.88;8.88;;;;;;;;;;5036243;28;20047;-63
2022/09/09 02:08:28;;;;;;;9.93;9.10;;;;;;;;;;5036041;28;20048;-63
2022/09/09 02:11:06;;;;;;;10.10;9.23;;;;;;;;;;5054648;28;20542;-63
2022/09/09 02:13:39;;;;;;;10.38;9.43;;;;;;;;;;5054639;28;20534;-63
2022/09/09 02:16:21;;;;;;;10.18;9.27;;;;;;;;;;5036215;28;20028;-63
2022/09/09 02:18:57;;;;;;;10.18;9.27;;;;;;;;;;5036477;28;20032;-63
2022/09/09 02:21:34;;;;;;;10.98;9.98;;;;;;;;;;5052686;28;20021;-63
2022/09/09 02:24:04;;;;;;;10.32;9.30;;;;;;;;;;5052606;28;20094;-63
2022/09/09 02:26:31;;;;;;;12.43;10.25;;;;;;;;;;5052639;28;20032;-63
2022/09/09 02:29:05;;;;;;;11.48;10.35;;;;;;;;;;5036012;28;20032;-63
2022/09/09 02:31:31;;;;;;;10.57;9.68;;;;;;;;;;5035849;28;20021;-63
2022/09/09 02:34:03;;;;;;;11.02;10.02;;;;;;;;;;5036170;28;20025;-63
2022/09/09 02:36:30;;;;;;;11.57;10.10;;;;;;;;;;5036104;28;20123;-63
2022/09/09 02:38:56;;;;;;;10.50;9.60;;;;;;;;;;5035829;28;20108;-63
2022/09/09 02:41:31;;;;;;;11.80;9.70;;;;;;;;;;5035776;28;20502;-63
2022/09/09 02:43:57;;;;;;;11.60;10.50;;;;;;;;;;5050366;22;20049;-63
2022/09/09 02:46:29;;;;;;;12.30;11.10;;;;;;;;;;5035993;28;20499;-63
2022/09/09 02:48:55;;;;;;;12.60;11.45;;;;;;;;;;5054148;28;20033;-63
2022/09/09 02:51:32;;;;;;;12.15;10.98;;;;;;;;;;5035933;28;20071;-63
2022/09/09 02:54:18;;;;;;;12.68;11.45;;;;;;;;;;5052236;28;20481;-63
2022/09/09 02:56:47;;;;;;;13.02;11.73;;;;;;;;;;5022237;28;20527;-63
2022/09/09 02:59:12;;;;;;;14.18;12.77;;;;;;;;;;5035587;28;20024;-63
2022/09/09 03:01:39;;;;;;;12.65;11.55;;;;;;;;;;5035586;28;20045;-63
2022/09/09 03:04:05;;;;;;;13.90;12.57;;;;;;;;;;5035758;28;20025;-63
2022/09/09 03:06:31;;;;;;;14.35;12.25;;;;;;;;;;5053400;28;20017;-63
2022/09/09 03:09:05;;;;;;;14.73;13.23;;;;;;;;;;5036082;28;20044;-63
2022/09/09 03:11:31;;;;;;;13.52;12.13;;;;;;;;;;5035786;28;20056;-63
2022/09/09 03:13:57;;;;;;;14.65;12.38;;;;;;;;;;5038306;28;20025;-63
2022/09/09 03:16:24;;;;;;;12.52;11.23;;;;;;;;;;5039804;28;20366;-63
2022/09/09 03:18:52;;;;;;;13.52;12.02;;;;;;;;;;5039781;28;20024;-63
2022/09/09 03:21:18;;;;;;;13.43;12.07;;;;;;;;;;5039674;28;20032;-63
2022/09/09 03:23:44;;;;;;;16.08;12.50;;;;;;;;;;5039292;28;20021;-63
2022/09/09 03:26:10;;;;;;;13.95;12.48;;;;;;;;;;5057541;28;20025;-63
2022/09/09 03:28:42;;;;;;;13.48;12.20;;;;;;;;;;5039301;28;20469;-63
2022/09/09 03:31:10;;;;;;;14.52;12.95;;;;;;;;;;5039228;28;20025;-63
2022/09/09 03:33:38;;;;;;;14.55;12.95;;;;;;;;;;5039292;28;20024;-63
2022/09/09 03:36:07;;;;;;;14.50;13.00;;;;;;;;;;5039179;28;20039;-63
2022/09/09 03:38:33;;;;;;;14.50;12.55;;;;;;;;;;5039141;28;20037;-63
2022/09/09 03:41:01;;;;;;;13.30;12.00;;;;;;;;;;5039084;28;20025;-63
2022/09/09 03:43:28;;;;;;;14.60;12.48;;;;;;;;;;5038800;28;20116;-63
2022/09/09 03:45:56;;;;;;;14.80;12.73;;;;;;;;;;5055521;28;20033;-63
2022/09/09 03:48:22;;;;;;;13.45;12.02;;;;;;;;;;5038971;28;20485;-63
2022/09/09 03:50:48;;;;;;;13.13;11.73;;;;;;;;;;5038930;28;20031;-63
2022/09/09 03:53:14;;;;;;;13.82;12.38;;;;;;;;;;5038806;28;20017;-63
2022/09/09 03:55:43;;;;;;;13.68;12.27;;;;;;;;;;5038820;28;20036;-63
2022/09/09 03:58:08;;;;;;;14.13;12.63;;;;;;;;;;5056960;28;20032;-63
2022/09/09 04:00:34;;;;;;;15.65;13.32;;;;;;;;;;5038782;28;20028;-63
2022/09/09 04:02:59;;;;;;;17.27;14.65;;;;;;;;;;5057138;28;20021;-63
2022/09/09 04:05:24;;;;;;;20.63;15.27;;;;;;;;;;5038611;28;20556;-63
2022/09/09 04:07:51;;;;;;;17.92;15.45;;;;;;;;;;5038660;28;20084;-63
2022/09/09 04:10:17;;;;;;;17.40;14.98;;;;;;;;;;5038562;28;20388;-63
2022/09/09 04:12:43;;;;;;;20.58;15.43;;;;;;;;;;5038498;28;20024;-63
2022/09/09 04:15:10;;;;;;;21.05;16.30;;;;;;;;;;5039306;28;20029;-63
2022/09/09 04:17:36;;;;;;;19.38;15.40;;;;;;;;;;5038679;28;20016;-63
2022/09/09 04:20:02;;;;;;;17.67;14.27;;;;;;;;;;5038659;28;20043;-63
2022/09/09 04:22:28;;;;;;;16.17;14.23;;;;;;;;;;5038305;28;20056;-63
2022/09/09 04:24:53;;;;;;;16.30;14.65;;;;;;;;;;5038011;28;20029;-63
2022/09/09 04:27:19;;;;;;;17.92;15.10;;;;;;;;;;5038270;28;20379;-63
2022/09/09 04:29:45;;;;;;;18.33;14.00;;;;;;;;;;5038195;28;20112;-63
2022/09/09 04:32:11;;;;;;;16.55;14.45;;;;;;;;;;5038194;28;20017;-63
2022/09/09 04:34:38;;;;;;;19.23;14.60;;;;;;;;;;5038090;28;20063;-63
2022/09/09 04:37:03;;;;;;;17.10;14.40;;;;;;;;;;5038066;28;20376;-63
2022/09/09 04:39:29;;;;;;;16.40;14.63;;;;;;;;;;5038054;28;20029;-63
2022/09/09 04:41:55;;;;;;;16.08;13.43;;;;;;;;;;5037948;28;20460;-63
2022/09/09 04:44:21;;;;;;;16.20;12.85;;;;;;;;;;5055583;28;20389;-63
2022/09/09 04:46:47;;;;;;;11.63;10.52;;;;;;;;;;5038703;28;20031;-63
2022/09/09 04:49:13;;;;;;;7.85;7.25;;;;;;;;;;5037873;28;20033;-63
2022/09/09 04:51:38;;;;;;;6.78;6.28;;;;;;;;;;5037786;28;20107;-63
2022/09/09 04:54:05;;;;;;;7.28;6.78;;;;;;;;;;5055476;28;20025;-63
2022/09/09 04:56:31;;;;;;;8.68;7.97;;;;;;;;;;5037688;28;20127;-63
2022/09/09 04:58:57;;;;;;;11.27;8.43;;;;;;;;;;5054207;28;20119;-63
2022/09/09 05:01:32;;;;;;;8.98;8.15;;;;;;;;;;5055467;28;20477;-63
2022/09/09 05:04:02;;;;;;;9.98;9.02;;;;;;;;;;5054111;28;20033;-63
2022/09/09 05:06:29;;;;;;;11.45;9.85;;;;;;;;;;5055361;28;20449;-63
2022/09/09 05:08:58;;;;;;;22.87;16.70;;;;;;;;;;5037469;28;20017;-63
2022/09/09 05:11:27;;;;;;;24.08;18.48;;;;;;;;;;5037397;28;20400;-63
2022/09/09 05:13:57;;;;;;;25.90;19.15;;;;;;;;;;5055519;28;20017;-63
2022/09/09 05:16:23;;;;;;;28.55;19.50;;;;;;;;;;5037932;28;20021;-63
2022/09/09 05:18:51;;;;;;;25.73;18.08;;;;;;;;;;5037326;28;20021;-63
2022/09/09 05:21:19;;;;;;;28.08;19.02;;;;;;;;;;5037471;28;20032;-63
2022/09/09 05:23:45;;;;;;;28.60;18.50;;;;;;;;;;5037465;28;20024;-63
2022/09/09 05:26:15;;;;;;;26.17;18.88;;;;;;;;;;5037097;28;20032;-63
2022/09/09 05:28:40;;;;;;;24.88;17.60;;;;;;;;;;5053709;28;20039;-63
2022/09/09 05:31:13;;;;;;;24.60;18.20;;;;;;;;;;5063364;22;20415;-63
2022/09/09 05:33:40;;;;;;;26.83;20.50;;;;;;;;;;5056965;28;20027;-63
2022/09/09 05:36:07;;;;;;;26.30;19.27;;;;;;;;;;5056050;28;20146;-63
2022/09/09 05:38:34;;;;;;;29.25;22.05;;;;;;;;;;5056582;28;20538;-63
2022/09/09 05:40:59;;;;;;;29.63;21.55;;;;;;;;;;5056828;28;20016;-63
2022/09/09 05:43:26;;;;;;;27.90;20.20;;;;;;;;;;5074949;28;20027;-63
2022/09/09 05:46:01;;;;;;;29.92;21.35;;;;;;;;;;5074780;28;20115;-63
2022/09/09 05:48:53;;;;;;;29.95;20.98;;;;;;;;;;5056653;28;20031;-63
2022/09/09 05:51:25;;;;;;;30.27;20.05;;;;;;;;;;5055607;28;20514;-63
2022/09/09 05:53:51;;;;;;;29.98;21.67;;;;;;;;;;5056513;28;20476;-63
2022/09/09 05:56:18;;;;;;;28.50;21.20;;;;;;;;;;5056770;28;20020;-63
2022/09/09 05:58:46;;;;;;;29.17;20.27;;;;;;;;;;5056418;28;20178;-63
2022/09/09 06:01:18;;;;;;;31.92;23.05;;;;;;;;;;5056977;28;20341;-63
2022/09/09 06:03:45;;;;;;;29.92;20.83;;;;;;;;;;5056241;28;20487;-63
2022/09/09 06:06:11;;;;;;;33.70;22.30;;;;;;;;;;5040332;28;20023;-63
2022/09/09 06:08:38;;;;;;;32.75;23.33;;;;;;;;;;5074464;28;20475;-63
2022/09/09 06:11:09;;;;;;;30.75;22.80;;;;;;;;;;5056423;28;20036;-67
2022/09/09 06:13:37;;;;;;;28.52;21.85;;;;;;;;;;5074437;28;20107;-68
2022/09/09 06:16:02;;;;;;;32.55;24.30;;;;;;;;;;5056729;28;20020;-68
2022/09/09 06:18:29;;;;;;;29.08;19.88;;;;;;;;;;5056620;28;20380;-68
2022/09/09 06:21:03;;;;;;;34.00;22.85;;;;;;;;;;5056047;28;20016;-68
2022/09/09 06:23:28;;;;;;;28.20;19.60;;;;;;;;;;5056270;28;20041;-68
2022/09/09 06:26:05;;;;;;;31.08;22.10;;;;;;;;;;5074352;28;20027;-67
2022/09/09 06:28:35;;;;;;;34.10;22.27;;;;;;;;;;5073196;28;20107;-68
2022/09/09 06:31:01;;;;;;;29.38;20.67;;;;;;;;;;5055839;28;20033;-68
2022/09/09 06:33:30;;;;;;;28.23;20.25;;;;;;;;;;5073120;28;20028;-68
2022/09/09 06:35:56;;;;;;;26.27;16.65;;;;;;;;;;5065481;22;20052;-63
2022/09/09 06:38:23;;;;;;;30.58;18.48;;;;;;;;;;5035833;28;20031;-63
2022/09/09 06:40:54;;;;;;;21.77;15.13;;;;;;;;;;5052432;28;20021;-63
2022/09/09 06:43:20;;;;;;;23.65;16.33;;;;;;;;;;5052429;28;20029;-63
2022/09/09 06:45:59;;;;;;;28.65;18.38;;;;;;;;;;5052331;28;20016;-63
2022/09/09 06:48:28;;;;;;;24.67;17.65;;;;;;;;;;5051971;28;20031;-63
2022/09/09 06:51:04;;;;;;;27.05;17.05;;;;;;;;;;5054472;28;20009;-63
2022/09/09 06:53:29;;;;;;;35.33;18.13;;;;;;;;;;5056337;28;20025;-63
2022/09/09 06:55:55;;;;;;;29.20;19.27;;;;;;;;;;5052662;28;20469;-63
2022/09/09 06:58:21;;;;;;;27.45;16.63;;;;;;;;;;5052233;28;20480;-63
2022/09/09 07:00:47;;;;;;;22.52;16.20;;;;;;;;;;5052389;28;20013;-63
2022/09/09 07:03:13;;;;;;;25.05;17.27;;;;;;;;;;5035661;28;20037;-63
2022/09/09 07:05:39;;;;;;;18.83;13.98;;;;;;;;;;5053389;28;20103;-63
2022/09/09 07:08:05;;;;;;;15.18;11.63;;;;;;;;;;5052140;28;20514;-63
2022/09/09 07:10:30;;;;;;;11.98;9.77;;;;;;;;;;5053375;28;20016;-63
2022/09/09 07:12:56;;;;;;;14.65;11.02;;;;;;;;;;5052178;28;20028;-63
2022/09/09 07:15:24;;;;;;;13.00;9.93;;;;;;;;;;5051980;28;20020;-63
2022/09/09 07:17:50;;;;;;;16.42;11.57;;;;;;;;;;5052051;28;20592;-63
2022/09/09 07:20:15;;;;;;;15.43;11.32;;;;;;;;;;5052596;28;20104;-63
2022/09/09 07:22:41;;;;;;;13.77;10.90;;;;;;;;;;5051927;28;20033;-63
2022/09/09 07:25:08;;;;;;;15.20;11.30;;;;;;;;;;5051797;28;20025;-63
2022/09/09 07:27:35;;;;;;;11.90;10.13;;;;;;;;;;5051960;28;20021;-63
2022/09/09 07:30:02;;;;;;;10.23;9.13;;;;;;;;;;5051948;28;20028;-63
2022/09/09 07:32:30;;;;;;;13.43;9.55;;;;;;;;;;5051888;28;20040;-63
2022/09/09 07:34:55;;;;;;;12.85;11.48;;;;;;;;;;5051722;28;20041;-63
2022/09/09 07:37:21;;;;;;;13.25;9.68;;;;;;;;;;5052460;28;20361;-63
2022/09/09 07:39:47;;;;;;;11.15;9.60;;;;;;;;;;5052173;28;20028;-63
2022/09/09 07:42:13;;;;;;;10.18;8.43;;;;;;;;;;5051835;28;20159;-62
2022/09/09 07:44:39;;;;;;;10.23;8.45;;;;;;;;;;5051766;28;20479;-63
2022/09/09 07:47:09;;;;;;;11.45;7.88;;;;;;;;;;5053077;28;20025;-63
2022/09/09 07:49:42;;;;;;;10.32;7.90;;;;;;;;;;5051577;28;20388;-63
2022/09/09 07:52:08;;;;;;;10.52;8.85;;;;;;;;;;5051510;28;20029;-63
2022/09/09 07:54:34;;;;;;;9.10;8.10;;;;;;;;;;5052010;28;20028;-63
2022/09/09 07:57:04;;;;;;;10.05;7.85;;;;;;;;;;5051700;28;20025;-62
2022/09/09 07:59:31;;;;;;;11.70;8.18;;;;;;;;;;5052023;28;20036;-63
2022/09/09 08:01:58;;;;;;;9.93;8.35;;;;;;;;;;5056949;28;20017;-63
2022/09/09 08:04:27;;;;;;;10.85;8.65;;;;;;;;;;5055287;28;20079;-62
2022/09/09 08:06:55;;;;;;;8.10;7.40;;;;;;;;;;5055869;28;20373;-63
2022/09/09 08:09:26;;;;;;;10.07;6.57;;;;;;;;;;5055259;28;20090;-63
2022/09/09 08:11:53;;;;;;;7.78;7.00;;;;;;;;;;5055240;28;20028;-63
2022/09/09 08:14:18;;;;;;;7.57;6.82;;;;;;;;;;5055148;28;20017;-63
2022/09/09 08:16:46;;;;;;;9.75;6.57;;;;;;;;;;5055095;28;20481;-63
2022/09/09 08:19:15;;;;;;;8.68;6.10;;;;;;;;;;5055062;28;20598;-63
2022/09/09 08:21:41;;;;;;;7.32;6.60;;;;;;;;;;5055581;28;20055;-63
2022/09/09 08:24:07;;;;;;;6.47;5.93;;;;;;;;;;5054898;28;20362;-63
2022/09/09 08:26:37;;;;;;;6.82;6.20;;;;;;;;;;5056179;28;20040;-63
2022/09/09 08:29:04;;;;;;;6.03;5.43;;;;;;;;;;5054901;28;20021;-63
2022/09/09 08:31:39;;;;;;;6.55;5.95;;;;;;;;;;5054841;28;20108;-63
2022/09/09 08:34:06;;;;;;;6.88;6.10;;;;;;;;;;5055235;28;20411;-62
2022/09/09 08:36:34;;;;;;;5.65;5.18;;;;;;;;;;5054919;28;20075;-63
2022/09/09 08:39:00;;;;;;;5.10;4.53;;;;;;;;;;5054986;28;20469;-63
2022/09/09 08:41:36;;;;;;;5.07;4.70;;;;;;;;;;5055294;28;20029;-63
2022/09/09 08:44:02;;;;;;;4.47;4.18;;;;;;;;;;5056041;28;20017;-63
2022/09/09 08:46:47;;;;;;;4.63;4.22;;;;;;;;;;5054583;28;20132;-63
2022/09/09 08:49:32;;;;;;;4.63;4.22;;;;;;;;;;5054197;28;20108;-63
2022/09/09 08:51:57;;;;;;;3.42;3.22;;;;;;;;;;5054443;28;20056;-62
2022/09/09 08:54:23;;;;;;;4.28;3.75;;;;;;;;;;5054693;28;20460;-63
2022/09/09 08:56:49;;;;;;;3.80;3.50;;;;;;;;;;5054964;28;20492;-63
2022/09/09 08:59:17;;;;;;;3.20;2.90;;;;;;;;;;5054339;28;20531;-63
2022/09/09 09:01:46;;;;;;;3.28;3.00;;;;;;;;;;5054352;28;20071;-63
2022/09/09 09:04:35;;;;;;;2.58;2.38;;;;;;;;;;5054160;28;20021;-62
2022/09/09 09:07:06;;;;;;;2.33;2.20;;;;;;;;;;5070717;28;20029;-63
2022/09/09 09:09:48;;;;;;;3.08;2.42;;;;;;;;;;5054160;28;20171;-62
2022/09/09 09:12:16;;;;;;;2.20;2.10;;;;;;;;;;5055180;28;20025;-62
2022/09/09 09:14:43;;;;;;;2.33;2.22;;;;;;;;;;5054002;28;20016;-63
2022/09/09 09:17:12;;;;;;;2.22;2.13;;;;;;;;;;5055273;28;20028;-63
2022/09/09 09:19:39;;;;;;;2.60;2.50;;;;;;;;;;5054557;28;20086;-63
2022/09/09 09:22:26;;;;;;;2.60;2.40;;;;;;;;;;5053862;28;20029;-63
2022/09/09 09:24:59;;;;;;;2.67;2.58;;;;;;;;;;5054027;28;20476;-62
2022/09/09 09:27:26;;;;;;;;;;;;;;;;;;5037880;28;20487;-62
2022/09/09 09:29:54;;;;;;;2.17;2.03;;;;;;;;;;5053739;28;19904;-63
2022/09/09 09:32:20;;;;;;;1.63;1.63;;;;;;;;;;5053562;28;20284;-63
2022/09/09 09:35:09;;;;;;;1.77;1.67;;;;;;;;;;5070194;28;20045;-63
2022/09/09 09:37:36;;;;;;;2.87;1.83;;;;;;;;;;5053695;28;20496;-63
2022/09/09 09:40:10;;;;;;;1.70;1.60;;;;;;;;;;5053596;28;20025;-63
2022/09/09 09:42:38;;;;;;;1.70;1.60;;;;;;;;;;5057020;28;20041;-62
2022/09/09 09:45:19;;;;;;;1.70;1.60;;;;;;;;;;5056276;28;20020;-62
2022/09/09 09:47:44;;;;;;;2.13;2.03;;;;;;;;;;5053393;28;20028;-62
2022/09/09 09:50:19;;;;;;;1.92;1.70;;;;;;;;;;5054900;28;20116;-63
2022/09/09 09:52:53;;;;;;;2.28;2.03;;;;;;;;;;5053579;28;20035;-63
2022/09/09 09:55:19;;;;;;;1.90;1.80;;;;;;;;;;5053280;28;20028;-63
2022/09/09 09:57:45;;;;;;;2.78;2.03;;;;;;;;;;5053196;28;20536;-63
2022/09/09 10:00:14;;;;;;;1.75;1.55;;;;;;;;;;5053237;28;20029;-62
2022/09/09 10:02:43;;;;;;;1.88;1.77;;;;;;;;;;5054953;28;20108;-63
2022/09/09 10:05:19;;;;;;;1.58;1.48;;;;;;;;;;5053279;28;20443;-62
2022/09/09 10:08:02;;;;;;;2.13;1.73;;;;;;;;;;5053042;28;20025;-62
2022/09/09 10:10:42;;;;;;;1.70;1.60;;;;;;;;;;5054509;28;20029;-63
2022/09/09 10:13:21;;;;;;;2.28;1.67;;;;;;;;;;5053285;28;20027;-62
2022/09/09 10:15:55;;;;;;;1.65;1.25;;;;;;;;;;5054436;28;20090;-63
2022/09/09 10:18:29;;;;;;;1.45;1.35;;;;;;;;;;5054409;28;20115;-62
2022/09/09 10:21:10;;;;;;;1.88;1.50;;;;;;;;;;5054021;28;20063;-62
2022/09/09 10:23:38;;;;;;;2.47;1.63;;;;;;;;;;5053904;28;20031;-63
2022/09/09 10:26:09;;;;;;;4.10;1.50;;;;;;;;;;5052987;28;20021;-62
2022/09/09 10:28:54;;;;;;;1.50;1.50;;;;;;;;;;5054225;28;20029;-62
2022/09/09 10:31:24;;;;;;;1.50;1.40;;;;;;;;;;5054311;28;20025;-62
2022/09/09 10:33:55;;;;;;;1.60;1.50;;;;;;;;;;5053855;28;20029;-63
2022/09/09 10:36:20;;;;;;;;;;;;;;;;;;5052839;28;20055;-62
2022/09/09 10:38:47;;;;;;;1.80;1.70;;;;;;;;;;5054328;28;19908;-63
2022/09/09 10:41:20;;;;;;;1.63;1.52;;;;;;;;;;5053717;28;20388;-63
2022/09/09 10:44:05;;;;;;;1.85;1.60;;;;;;;;;;5052803;28;20068;-63
2022/09/09 10:46:43;;;;;;;1.83;1.73;;;;;;;;;;5053942;28;20465;-62
2022/09/09 10:49:27;;;;;;;1.83;1.63;;;;;;;;;;5052740;28;20388;-63
2022/09/09 10:52:19;;;;;;;1.95;1.85;;;;;;;;;;5053887;28;20033;-62
2022/09/09 10:54:44;;;;;;;1.70;1.60;;;;;;;;;;5051506;28;20095;-63
2022/09/09 10:57:13;;;;;;;1.80;1.70;;;;;;;;;;5052308;28;20508;-63
2022/09/09 10:59:44;;;;;;;1.73;1.63;;;;;;;;;;5053509;28;20259;-62
2022/09/09 11:02:16;;;;;;;1.60;1.50;;;;;;;;;;5054038;28;20432;-62
2022/09/09 11:04:44;;;;;;;1.80;1.70;;;;;;;;;;5053625;28;20025;-62
2022/09/09 11:07:12;;;;;;;1.75;1.65;;;;;;;;;;5053452;28;20066;-63
2022/09/09 11:09:39;;;;;;;2.58;1.40;;;;;;;;;;5053959;28;20040;-63
2022/09/09 11:12:05;;;;;;;1.27;1.17;;;;;;;;;;5052158;28;20025;-63
2022/09/09 11:14:34;;;;;;;1.52;1.45;;;;;;;;;;5053373;28;20037;-62
2022/09/09 11:17:10;;;;;;;1.58;1.48;;;;;;;;;;5052296;28;20043;-62
2022/09/09 11:19:35;;;;;;;1.50;1.40;;;;;;;;;;5053396;28;20051;-62
2022/09/09 11:22:03;;;;;;;1.67;1.58;;;;;;;;;;5053307;28;20108;-63
2022/09/09 11:24:37;;;;;;;2.28;1.45;;;;;;;;;;5053232;28;20393;-63
2022/09/09 11:27:24;;;;;;;2.30;1.60;;;;;;;;;;5053839;28;20112;-62
2022/09/09 11:30:02;;;;;;;1.55;1.33;;;;;;;;;;5051874;28;20036;-62
2022/09/09 11:32:47;;;;;;;1.55;1.45;;;;;;;;;;5053426;28;20055;-66
2022/09/09 11:35:40;;;;;;;1.33;1.30;;;;;;;;;;5065008;28;20044;-66
2022/09/09 11:38:26;;;;;;;1.35;1.20;;;;;;;;;;5074033;28;20040;-67
2022/09/09 11:40:58;;;;;;;1.48;1.40;;;;;;;;;;5066350;28;20044;-66
2022/09/09 11:43:27;;;;;;;1.33;1.23;;;;;;;;;;5077538;28;20111;-66
2022/09/09 11:45:55;;;;;;;1.40;1.30;;;;;;;;;;5076860;28;20096;-66
2022/09/09 11:48:38;;;;;;;1.38;1.30;;;;;;;;;;5077193;28;20029;-66
2022/09/09 11:51:07;;;;;;;1.50;1.33;;;;;;;;;;5076984;28;20043;-66
2022/09/09 11:53:33;;;;;;;1.55;1.45;;;;;;;;;;5077063;28;20016;-66
2022/09/09 11:56:03;;;;;;;1.40;1.30;;;;;;;;;;5058797;28;20032;-66
2022/09/09 11:58:32;;;;;;;1.40;1.30;;;;;;;;;;5077000;28;20082;-66
2022/09/09 12:00:57;;;;;;;1.30;1.30;;;;;;;;;;5076646;28;20020;-66
2022/09/09 12:03:35;;;;;;;3.40;1.50;;;;;;;;;;5075378;28;20078;-66
2022/09/09 12:06:10;;;;;;;1.95;1.85;;;;;;;;;;5076468;28;20025;-67
2022/09/09 12:08:36;;;;;;;1.60;1.50;;;;;;;;;;5076840;28;20483;-66
2022/09/09 12:11:03;;;;;;;1.60;1.50;;;;;;;;;;5076487;28;20013;-67
2022/09/09 12:13:28;;;;;;;1.48;1.27;;;;;;;;;;5076402;28;20024;-66
2022/09/09 12:15:55;;;;;;;3.17;1.20;;;;;;;;;;5076640;28;20103;-66
2022/09/09 12:18:22;;;;;;;1.70;1.60;;;;;;;;;;5076337;28;20039;-66
2022/09/09 12:20:54;;;;;;;1.35;1.35;;;;;;;;;;5076305;28;20025;-66
2022/09/09 12:23:42;;;;;;;1.30;1.30;;;;;;;;;;5076526;28;20032;-66
2022/09/09 12:26:10;;;;;;;2.25;1.50;;;;;;;;;;5078063;28;20476;-67
2022/09/09 12:28:37;;;;;;;1.75;1.65;;;;;;;;;;5078442;28;20031;-67
2022/09/09 12:31:07;;;;;;;2.03;1.58;;;;;;;;;;5058304;28;20028;-66
2022/09/09 12:33:34;;;;;;;2.90;2.20;;;;;;;;;;5076388;28;20106;-66
2022/09/09 12:36:00;;;;;;;2.40;1.88;;;;;;;;;;5075865;28;20048;-67
2022/09/09 12:38:34;;;;;;;1.90;1.65;;;;;;;;;;5076259;28;20032;-67
2022/09/09 12:41:00;;;;;;;2.38;1.60;;;;;;;;;;5076508;28;20104;-66
2022/09/09 12:43:26;;;;;;;1.90;1.65;;;;;;;;;;5075898;28;20108;-66
2022/09/09 12:45:57;;;;;;;1.70;1.60;;;;;;;;;;5075128;28;20036;-66
2022/09/09 12:48:25;;;;;;;3.78;1.77;;;;;;;;;;5076064;28;20027;-66
2022/09/09 12:50:52;;;;;;;1.92;1.80;;;;;;;;;;5057836;28;20361;-67
2022/09/09 12:53:34;;;;;;;2.88;1.80;;;;;;;;;;5075708;28;20460;-66
2022/09/09 12:56:04;;;;;;;2.42;1.55;;;;;;;;;;5075957;28;20124;-66
2022/09/09 12:58:32;;;;;;;2.33;1.33;;;;;;;;;;5058056;28;20037;-66
2022/09/09 13:01:00;;;;;;;2.03;1.80;;;;;;;;;;5057615;28;20016;-67
2022/09/09 13:03:26;;;;;;;1.70;1.60;;;;;;;;;;5075769;28;20032;-66
2022/09/09 13:05:53;;;;;;;1.88;1.70;;;;;;;;;;5075401;28;20362;-67
2022/09/09 13:08:20;;;;;;;3.70;2.13;;;;;;;;;;5075694;28;20028;-67
2022/09/09 13:10:54;;;;;;;2.13;2.00;;;;;;;;;;5075667;28;20409;-67
2022/09/09 13:13:25;;;;;;;2.58;2.10;;;;;;;;;;5075592;28;20029;-66
2022/09/09 13:15:57;;;;;;;2.03;1.92;;;;;;;;;;5057347;28;20039;-67
2022/09/09 13:18:24;;;;;;;2.00;1.90;;;;;;;;;;5057349;28;20033;-66
2022/09/09 13:20:51;;;;;;;2.20;2.00;;;;;;;;;;5075474;28;20020;-66
2022/09/09 13:23:19;;;;;;;3.78;2.38;;;;;;;;;;5075156;28;20089;-66
2022/09/09 13:25:55;;;;;;;2.47;2.28;;;;;;;;;;5074999;28;20375;-62
2022/09/09 13:28:22;;;;;;;2.47;2.28;;;;;;;;;;5075559;28;20025;-67
2022/09/09 13:31:01;;;;;;;3.30;1.80;;;;;;;;;;5075250;28;20017;-66
2022/09/09 13:33:31;;;;;;;1.80;1.70;;;;;;;;;;5075476;28;20082;-67
2022/09/09 13:35:57;;;;;;;2.00;1.90;;;;;;;;;;5053694;28;20056;-67
2022/09/09 13:38:24;;;;;;;2.97;2.05;;;;;;;;;;5055153;28;20118;-67
2022/09/09 13:41:09;;;;;;;2.22;2.00;;;;;;;;;;5053600;28;20028;-67
2022/09/09 13:43:37;;;;;;;2.13;1.88;;;;;;;;;;5055037;28;20028;-67
2022/09/09 13:46:04;;;;;;;1.65;1.55;;;;;;;;;;5054920;28;20021;-67
2022/09/09 13:48:31;;;;;;;2.92;2.55;;;;;;;;;;5054687;28;20032;-67
2022/09/09 13:51:05;;;;;;;2.83;2.50;;;;;;;;;;5054891;28;20384;-67
2022/09/09 13:53:30;;;;;;;2.58;2.35;;;;;;;;;;5070190;28;20021;-67
2022/09/09 13:55:56;;;;;;;3.45;2.67;;;;;;;;;;5054554;28;20358;-67
2022/09/09 13:58:23;;;;;;;3.88;2.53;;;;;;;;;;5052281;28;20060;-67
2022/09/09 14:00:49;;;;;;;2.92;2.63;;;;;;;;;;5054746;28;20472;-67
2022/09/09 14:03:15;;;;;;;2.38;2.17;;;;;;;;;;5054420;28;20104;-67
2022/09/09 14:05:40;;;;;;;3.17;2.03;;;;;;;;;;5054825;28;20497;-67
2022/09/09 14:08:06;;;;;;;2.45;2.33;;;;;;;;;;5054288;28;20461;-67
2022/09/09 14:10:32;;;;;;;3.35;2.72;;;;;;;;;;5054273;28;20029;-67
2022/09/09 14:12:57;;;;;;;5.60;3.10;;;;;;;;;;5053621;28;20445;-67
2022/09/09 14:15:22;;;;;;;3.83;3.15;;;;;;;;;;5054458;28;20020;-67
2022/09/09 14:17:48;;;;;;;2.20;2.10;;;;;;;;;;5054126;28;20482;-67
2022/09/09 14:20:15;;;;;;;2.38;2.17;;;;;;;;;;5054885;28;20496;-66
2022/09/09 14:22:41;;;;;;;3.00;2.17;;;;;;;;;;5054378;28;20118;-68
2022/09/09 14:25:06;;;;;;;2.47;2.28;;;;;;;;;;5054231;28;20051;-67
2022/09/09 14:27:32;;;;;;;2.45;2.25;;;;;;;;;;5054271;28;20032;-67
2022/09/09 14:29:57;;;;;;;1.95;1.83;;;;;;;;;;5053940;28;20424;-67
2022/09/09 14:32:23;;;;;;;1.90;1.80;;;;;;;;;;5053865;28;20032;-67
2022/09/09 14:34:51;;;;;;;1.80;1.70;;;;;;;;;;5059536;28;20408;-67
2022/09/09 14:37:17;;;;;;;1.83;1.70;;;;;;;;;;5074084;28;20021;-67
2022/09/09 14:39:46;;;;;;;3.20;1.80;;;;;;;;;;5074036;28;20448;-67
2022/09/09 14:42:12;;;;;;;2.25;2.05;;;;;;;;;;5055792;28;20043;-67
2022/09/09 14:44:38;;;;;;;1.90;1.77;;;;;;;;;;5074166;28;20472;-67
2022/09/09 14:47:04;;;;;;;1.90;1.80;;;;;;;;;;5073666;28;20112;-67
2022/09/09 14:49:29;;;;;;;2.08;1.98;;;;;;;;;;5073927;28;20016;-67